createdAt,value
2022-08-05T00:01:30.425Z,100919.34
2022-08-05T00:04:03.468Z,100931.56
2022-08-05T00:06:35.962Z,100935.06
2022-08-05T00:09:03.972Z,100938.56
2022-08-05T00:11:35.037Z,100939.44
2022-08-05T00:14:17.129Z,100943.75
2022-08-05T00:16:53.365Z,100940.28
2022-08-05T00:19:22.446Z,100939.41
2022-08-05T00:21:49.450Z,100938.50
2022-08-05T00:24:24.368Z,100948.91
2022-08-05T00:26:53.168Z,100951.53
2022-08-05T00:29:25.700Z,100943.72
2022-08-05T00:32:10.973Z,100950.69
2022-08-05T00:35:03.369Z,100948.97
2022-08-05T00:37:51.036Z,100955.97
2022-08-05T00:40:17.814Z,100951.59
2022-08-05T00:42:53.907Z,100947.22
2022-08-05T00:45:28.350Z,100961.19
2022-08-05T00:48:06.078Z,100959.50
2022-08-05T00:50:33.736Z,100960.34
2022-08-05T00:53:00.858Z,100958.59
2022-08-05T00:55:42.001Z,100956.84
2022-08-05T00:58:11.196Z,100959.50
2022-08-05T01:00:40.946Z,100947.28
2022-08-05T01:03:10.425Z,100909.00
2022-08-05T01:05:49.301Z,100951.53
2022-08-05T01:08:40.576Z,100954.97
2022-08-05T01:11:13.686Z,100948.84
2022-08-05T01:13:57.421Z,100959.34
2022-08-05T01:16:35.290Z,100964.59
2022-08-05T01:19:10.097Z,100954.16
2022-08-05T01:21:58.396Z,100959.38
2022-08-05T01:24:44.706Z,100950.81
2022-08-05T01:27:50.678Z,100955.19
2022-08-05T01:30:34.173Z,100955.19
2022-08-05T01:33:03.958Z,100956.03
2022-08-05T01:35:51.620Z,100955.09
2022-08-05T01:38:27.411Z,100951.59
2022-08-05T01:40:58.860Z,100950.72
2022-08-05T01:43:27.697Z,100948.06
2022-08-05T01:45:56.693Z,100951.53
2022-08-05T01:48:25.098Z,100941.91
2022-08-05T01:50:52.534Z,100946.25
2022-08-05T01:53:55.128Z,100948.88
2022-08-05T01:56:09.560Z,100945.38
2022-08-05T01:58:44.911Z,100937.63
2022-08-05T02:01:25.270Z,100943.00
2022-08-05T02:03:53.677Z,100935.09
2022-08-05T02:06:37.066Z,100939.50
2022-08-05T02:09:05.719Z,100945.63
2022-08-05T02:11:47.880Z,100942.16
2022-08-05T02:14:17.546Z,100941.25
2022-08-05T02:16:52.193Z,100943.00
2022-08-05T02:19:35.102Z,100939.50
2022-08-05T02:22:25.339Z,100944.78
2022-08-05T02:24:55.889Z,100942.97
2022-08-05T02:27:29.697Z,100943.88
2022-08-05T02:30:10.718Z,100945.63
2022-08-05T02:32:38.246Z,100951.81
2022-08-05T02:35:14.124Z,100951.81
2022-08-05T02:37:42.943Z,100957.00
2022-08-05T02:40:16.440Z,100957.00
2022-08-05T02:42:44.259Z,100951.81
2022-08-05T02:45:20.466Z,100955.34
2022-08-05T02:48:06.623Z,100951.81
2022-08-05T02:50:39.297Z,100960.56
2022-08-05T02:53:15.957Z,100963.25
2022-08-05T02:55:59.490Z,100958.91
2022-08-05T02:58:28.803Z,100963.25
2022-08-05T03:00:58.165Z,100960.66
2022-08-05T03:03:26.118Z,100965.88
2022-08-05T03:06:55.567Z,100955.41
2022-08-05T03:08:42.788Z,100961.53
2022-08-05T03:11:54.363Z,100961.53
2022-08-05T03:14:07.902Z,100965.88
2022-08-05T03:16:35.689Z,100962.41
2022-08-05T03:19:04.269Z,100967.63
2022-08-05T03:21:41.506Z,100972.84
2022-08-05T03:24:16.327Z,100974.59
2022-08-05T03:26:43.165Z,100977.19
2022-08-05T03:29:17.375Z,100971.13
2022-08-05T03:31:56.533Z,100978.94
2022-08-05T03:34:25.553Z,100974.59
2022-08-05T03:36:53.907Z,100979.81
2022-08-05T03:39:27.057Z,100976.28
2022-08-05T03:41:56.238Z,100972.78
2022-08-05T03:44:23.571Z,100977.97
2022-08-05T03:46:50.470Z,100986.69
2022-08-05T03:49:17.252Z,100978.03
2022-08-05T03:52:39.167Z,100981.47
2022-08-05T03:55:52.226Z,100976.25
2022-08-05T03:57:42.238Z,100978.84
2022-08-05T04:00:11.532Z,100980.59
2022-08-05T04:02:52.100Z,100981.53
2022-08-05T04:05:34.595Z,100978.94
2022-08-05T04:08:14.797Z,100989.38
2022-08-05T04:10:52.926Z,100985.91
2022-08-05T04:13:21.696Z,100983.28
2022-08-05T04:15:52.733Z,100986.75
2022-08-05T04:18:30.809Z,100992.00
2022-08-05T04:20:58.064Z,100991.13
2022-08-05T04:24:00.261Z,100994.63
2022-08-05T04:26:13.633Z,100994.59
2022-08-05T04:28:40.443Z,100984.16
2022-08-05T04:31:18.191Z,100989.34
2022-08-05T04:34:18.238Z,100987.56
2022-08-05T04:36:46.202Z,100989.31
2022-08-05T04:39:17.703Z,100998.06
2022-08-05T04:41:45.733Z,101001.59
2022-08-05T04:44:12.916Z,101012.91
2022-08-05T04:46:39.664Z,101017.25
2022-08-05T04:49:14.373Z,101019.00
2022-08-05T04:51:43.282Z,101019.81
2022-08-05T04:54:10.217Z,101023.31
2022-08-05T04:56:38.853Z,101015.47
2022-08-05T04:59:22.274Z,101021.56
2022-08-05T05:02:06.812Z,101023.25
2022-08-05T05:04:47.723Z,101033.66
2022-08-05T05:07:17.539Z,101035.41
2022-08-05T05:09:44.821Z,101031.97
2022-08-05T05:12:11.903Z,101033.75
2022-08-05T05:14:38.616Z,101034.56
2022-08-05T05:17:22.779Z,101039.00
2022-08-05T05:19:50.407Z,101032.88
2022-08-05T05:22:23.045Z,101040.75
2022-08-05T05:24:58.677Z,101045.94
2022-08-05T05:27:41.351Z,101055.53
2022-08-05T05:30:15.508Z,101051.22
2022-08-05T05:32:56.257Z,101066.84
2022-08-05T05:35:24.244Z,101064.25
2022-08-05T05:38:00.229Z,101073.81
2022-08-05T05:40:28.761Z,101072.09
2022-08-05T05:42:57.090Z,101075.56
2022-08-05T05:45:24.688Z,101072.94
2022-08-05T05:48:07.759Z,101074.56
2022-08-05T05:50:41.242Z,101078.03
2022-08-05T05:53:21.328Z,101086.75
2022-08-05T05:55:52.387Z,101090.22
2022-08-05T05:58:31.719Z,101097.19
2022-08-05T06:01:12.320Z,101098.09
2022-08-05T06:04:01.051Z,101087.63
2022-08-05T06:06:33.234Z,101081.50
2022-08-05T06:09:02.019Z,101075.47
2022-08-05T06:11:31.414Z,101069.34
2022-08-05T06:13:58.301Z,101078.94
2022-08-05T06:16:36.593Z,101082.41
2022-08-05T06:19:05.750Z,101085.91
2022-08-05T06:21:36.444Z,101074.63
2022-08-05T06:24:04.458Z,101082.41
2022-08-05T06:26:31.905Z,101085.91
2022-08-05T06:29:06.983Z,101077.22
2022-08-05T06:31:47.438Z,101091.22
2022-08-05T06:34:20.335Z,101095.63
2022-08-05T06:36:57.866Z,101090.44
2022-08-05T06:39:27.784Z,101077.34
2022-08-05T06:41:58.956Z,101074.66
2022-08-05T06:44:26.186Z,101070.31
2022-08-05T06:46:54.437Z,101084.28
2022-08-05T06:50:00.789Z,101079.03
2022-08-05T06:52:08.177Z,101080.75
2022-08-05T06:54:54.870Z,101088.53
2022-08-05T06:58:02.725Z,101087.72
2022-08-05T07:00:09.900Z,101100.84
2022-08-05T07:02:43.510Z,101100.84
2022-08-05T07:05:18.686Z,101091.25
2022-08-05T07:07:48.990Z,101099.91
2022-08-05T07:10:16.349Z,101096.50
2022-08-05T07:13:02.288Z,101101.75
2022-08-05T07:16:01.274Z,101093.91
2022-08-05T07:18:31.532Z,101094.81
2022-08-05T07:21:04.775Z,101094.81
2022-08-05T07:23:32.704Z,101084.38
2022-08-05T07:25:59.478Z,101086.97
2022-08-05T07:28:26.380Z,101083.50
2022-08-05T07:30:54.846Z,101083.47
2022-08-05T07:33:36.608Z,101075.63
2022-08-05T07:36:21.262Z,101083.47
2022-08-05T07:38:49.149Z,101096.56
2022-08-05T07:42:12.921Z,101091.31
2022-08-05T07:44:18.611Z,101088.72
2022-08-05T07:46:49.394Z,101083.50
2022-08-05T07:49:18.216Z,101092.22
2022-08-05T07:51:53.023Z,101094.84
2022-08-05T07:54:31.251Z,101100.03
2022-08-05T07:57:50.564Z,101093.97
2022-08-05T07:59:49.207Z,101105.28
2022-08-05T08:02:17.674Z,101091.31
2022-08-05T08:04:49.474Z,101093.09
2022-08-05T08:07:17.869Z,101094.84
2022-08-05T08:09:50.261Z,101093.94
2022-08-05T08:12:33.476Z,101093.09
2022-08-05T08:15:09.727Z,101089.63
2022-08-05T08:17:46.164Z,101094.84
2022-08-05T08:20:43.036Z,101093.97
2022-08-05T08:23:03.418Z,101091.34
2022-08-05T08:25:59.809Z,101088.75
2022-08-05T08:28:18.822Z,101089.59
2022-08-05T08:31:04.418Z,101090.47
2022-08-05T08:33:37.463Z,101084.34
2022-08-05T08:36:40.248Z,101087.84
2022-08-05T08:38:55.455Z,101088.69
2022-08-05T08:41:26.229Z,101083.44
2022-08-05T08:45:25.162Z,101083.44
2022-08-05T08:46:57.360Z,101082.56
2022-08-05T08:50:23.314Z,101079.09
2022-08-05T08:52:14.374Z,101079.97
2022-08-05T08:54:43.682Z,101066.84
2022-08-05T08:57:13.350Z,101068.47
2022-08-05T08:59:41.683Z,101055.34
2022-08-05T09:02:16.611Z,101051.78
2022-08-05T09:04:58.604Z,101049.06
2022-08-05T09:07:39.783Z,101039.44
2022-08-05T09:10:18.944Z,101042.91
2022-08-05T09:12:45.758Z,101038.59
2022-08-05T09:15:17.991Z,101030.81
2022-08-05T09:17:49.717Z,101036.03
2022-08-05T09:20:36.518Z,101030.78
2022-08-05T09:23:19.042Z,101036.91
2022-08-05T09:26:02.843Z,101024.63
2022-08-05T09:28:34.701Z,101030.75
2022-08-05T09:31:22.299Z,101023.81
2022-08-05T09:33:59.203Z,101022.88
2022-08-05T09:36:54.569Z,101021.84
2022-08-05T09:39:39.368Z,101021.75
2022-08-05T09:42:17.408Z,101017.25
2022-08-05T09:44:52.575Z,101026.75
2022-08-05T09:47:24.031Z,101024.06
2022-08-05T09:50:02.381Z,101025.72
2022-08-05T09:52:31.348Z,101030.03
2022-08-05T09:55:55.062Z,101026.34
2022-08-05T09:57:54.598Z,101021.56
2022-08-05T10:00:26.408Z,101025.22
2022-08-05T10:02:54.793Z,101020.03
2022-08-05T10:05:26.663Z,101023.88
2022-08-05T10:08:11.109Z,101018.75
2022-08-05T10:10:54.995Z,101027.38
2022-08-05T10:13:43.861Z,101013.16
2022-08-05T10:16:34.061Z,101016.84
2022-08-05T10:19:09.445Z,101003.03
2022-08-05T10:21:40.326Z,101004.13
2022-08-05T10:24:11.039Z,101003.94
2022-08-05T10:26:49.124Z,100999.88
2022-08-05T10:29:24.052Z,100998.16
2022-08-05T10:33:00.860Z,100991.91
2022-08-05T10:35:00.559Z,100980.53
2022-08-05T10:37:37.488Z,100980.47
2022-08-05T10:40:43.642Z,100987.22
2022-08-05T10:43:30.865Z,100979.63
2022-08-05T10:46:06.324Z,100984.25
2022-08-05T10:48:58.086Z,100985.72
2022-08-05T10:51:29.014Z,100973.03
2022-08-05T10:53:58.454Z,100981.22
2022-08-05T10:56:29.002Z,100966.97
2022-08-05T10:58:55.818Z,100966.94
2022-08-05T11:02:05.166Z,100978.38
2022-08-05T11:04:21.327Z,100973.41
2022-08-05T11:07:01.371Z,100975.63
2022-08-05T11:09:45.589Z,100976.88
2022-08-05T11:12:33.678Z,100973.31
2022-08-05T11:15:20.134Z,100936.16
2022-08-05T11:17:59.193Z,100963.94
2022-08-05T11:20:39.235Z,100971.31
2022-08-05T11:23:33.531Z,100972.03
2022-08-05T11:26:28.926Z,100964.47
2022-08-05T11:29:06.875Z,100960.25
2022-08-05T11:31:56.417Z,100952.81
2022-08-05T11:34:37.364Z,100948.28
2022-08-05T11:37:06.093Z,100947.44
2022-08-05T11:39:55.375Z,100949.13
2022-08-05T11:42:28.283Z,100945.84
2022-08-05T11:45:03.163Z,100947.47
2022-08-05T11:47:49.523Z,100941.50
2022-08-05T11:50:17.818Z,100938.53
2022-08-05T11:52:46.207Z,100947.16
2022-08-05T11:55:15.754Z,100942.69
2022-08-05T11:58:10.521Z,100940.53
2022-08-05T12:00:38.485Z,100943.13
2022-08-05T12:03:29.308Z,100949.78
2022-08-05T12:06:05.845Z,100950.81
2022-08-05T12:08:49.782Z,100943.78
2022-08-05T12:11:20.762Z,100949.19
2022-08-05T12:14:03.895Z,100947.50
2022-08-05T12:16:39.124Z,100940.28
2022-08-05T12:19:08.398Z,100946.00
2022-08-05T12:21:39.159Z,100937.78
2022-08-05T12:24:11.374Z,100950.84
2022-08-05T12:26:39.587Z,100939.09
2022-08-05T12:29:23.552Z,100939.72
2022-08-05T12:31:56.160Z,100937.34
2022-08-05T12:34:30.084Z,100945.38
2022-08-05T12:36:59.708Z,100927.63
2022-08-05T12:39:27.935Z,100938.75
2022-08-05T12:41:59.544Z,100943.50
2022-08-05T12:44:33.945Z,100931.38
2022-08-05T12:47:01.839Z,100936.44
2022-08-05T12:50:03.753Z,100938.97
2022-08-05T12:52:39.033Z,100932.69
2022-08-05T12:55:23.854Z,100930.31
2022-08-05T12:58:49.002Z,100928.72
2022-08-05T13:02:00.258Z,100933.13
2022-08-05T13:03:33.112Z,100923.53
2022-08-05T13:06:06.643Z,100922.66
2022-08-05T13:08:38.893Z,100925.28
2022-08-05T13:11:07.924Z,100917.34
2022-08-05T13:14:04.607Z,100921.56
2022-08-05T13:16:27.786Z,100922.47
2022-08-05T13:18:58.463Z,100919.72
2022-08-05T13:21:28.588Z,100916.22
2022-08-05T13:24:05.063Z,100914.78
2022-08-05T13:26:31.783Z,100910.78
2022-08-05T13:28:59.334Z,100914.34
2022-08-05T13:31:33.731Z,100916.34
2022-08-05T13:34:23.298Z,100907.41
2022-08-05T13:36:53.177Z,100908.53
2022-08-05T13:40:13.099Z,100896.84
2022-08-05T13:42:14.007Z,100885.16
2022-08-05T13:44:45.419Z,100889.81
2022-08-05T13:47:34.978Z,100885.34
2022-08-05T13:50:04.481Z,100883.25
2022-08-05T13:52:35.629Z,100879.72
2022-08-05T13:55:02.759Z,100878.94
2022-08-05T13:57:51.463Z,100879.84
2022-08-05T14:00:19.791Z,100867.59
2022-08-05T14:02:56.120Z,100875.03
2022-08-05T14:05:48.407Z,100865.78
2022-08-05T14:08:19.828Z,100864.38
2022-08-05T14:10:50.069Z,100862.53
2022-08-05T14:13:16.907Z,100861.03
2022-08-05T14:16:07.118Z,100859.34
2022-08-05T14:18:31.717Z,100860.16
2022-08-05T14:21:00.150Z,100843.47
2022-08-05T14:23:29.689Z,100853.59
2022-08-05T14:26:04.927Z,100835.97
2022-08-05T14:28:33.033Z,100847.56
2022-08-05T14:31:04.166Z,100846.22
2022-08-05T14:33:59.288Z,100840.41
2022-08-05T14:36:27.314Z,100844.75
2022-08-05T14:38:54.057Z,100834.78
2022-08-05T14:41:21.129Z,100836.38
2022-08-05T14:44:01.976Z,100829.56
2022-08-05T14:46:35.044Z,100826.81
2022-08-05T14:49:07.207Z,100827.25
2022-08-05T14:51:42.979Z,100831.16
2022-08-05T14:54:28.967Z,100831.97
2022-08-05T14:56:57.899Z,100791.56
2022-08-05T14:59:24.766Z,100824.66
2022-08-05T15:01:51.887Z,100824.53
2022-08-05T15:04:22.439Z,100812.69
2022-08-05T15:06:51.189Z,100826.16
2022-08-05T15:09:52.725Z,100823.03
2022-08-05T15:12:05.588Z,100820.94
2022-08-05T15:14:34.511Z,100827.13
2022-08-05T15:17:03.991Z,100814.59
2022-08-05T15:19:31.897Z,100814.03
2022-08-05T15:22:01.319Z,100814.56
2022-08-05T15:24:28.717Z,100821.16
2022-08-05T15:26:55.960Z,100811.56
2022-08-05T15:29:23.784Z,100813.13
2022-08-05T15:31:56.726Z,100807.50
2022-08-05T15:34:33.026Z,100815.66
2022-08-05T15:37:06.256Z,100812.34
2022-08-05T15:40:58.549Z,100810.06
2022-08-05T15:42:54.092Z,100806.66
2022-08-05T15:45:07.167Z,100806.09
2022-08-05T15:47:42.122Z,100806.38
2022-08-05T15:50:09.389Z,100795.91
2022-08-05T15:52:53.128Z,100797.97
2022-08-05T15:55:25.147Z,100803.56
2022-08-05T15:58:16.726Z,100805.19
2022-08-05T16:00:50.650Z,100772.56
2022-08-05T16:03:30.702Z,100785.38
2022-08-05T16:06:00.777Z,100788.25
2022-08-05T16:08:30.459Z,100786.06
2022-08-05T16:10:57.830Z,100784.63
2022-08-05T16:13:34.372Z,100777.59
2022-08-05T16:16:03.348Z,100772.59
2022-08-05T16:18:31.322Z,100779.31
2022-08-05T16:21:01.254Z,100779.28
2022-08-05T16:23:54.172Z,100770.38
2022-08-05T16:26:26.289Z,100780.69
2022-08-05T16:28:56.492Z,100781.75
2022-08-05T16:31:24.722Z,100780.44
2022-08-05T16:33:52.355Z,100772.84
2022-08-05T16:36:23.834Z,100773.59
2022-08-05T16:38:55.162Z,100773.91
2022-08-05T16:42:14.867Z,100780.78
2022-08-05T16:44:10.604Z,100771.19
2022-08-05T16:46:41.212Z,100766.16
2022-08-05T16:49:09.205Z,100765.38
2022-08-05T16:51:42.816Z,100764.94
2022-08-05T16:54:25.811Z,100775.16
2022-08-05T16:56:55.534Z,100760.75
2022-08-05T16:59:24.134Z,100758.81
2022-08-05T17:01:57.134Z,100761.97
2022-08-05T17:04:26.081Z,100763.19
2022-08-05T17:06:55.432Z,100762.53
2022-08-05T17:09:23.150Z,100761.47
2022-08-05T17:11:54.670Z,100760.56
2022-08-05T17:14:36.876Z,100753.59
2022-08-05T17:17:05.962Z,100757.00
2022-08-05T17:19:32.665Z,100757.38
2022-08-05T17:22:01.000Z,100752.34
2022-08-05T17:24:38.464Z,100753.50
2022-08-05T17:27:09.255Z,100726.81
2022-08-05T17:29:41.282Z,100756.81
2022-08-05T17:32:26.687Z,100762.69
2022-08-05T17:34:53.681Z,100762.50
2022-08-05T17:37:40.088Z,100758.28
2022-08-05T17:40:10.324Z,100756.41
2022-08-05T17:42:41.348Z,100752.69
2022-08-05T17:45:20.389Z,100753.41
2022-08-05T17:47:53.879Z,100748.69
2022-08-05T17:50:29.576Z,100749.94
2022-08-05T17:53:01.220Z,100754.56
2022-08-05T17:55:37.317Z,100751.63
2022-08-05T17:58:06.966Z,100758.31
2022-08-05T18:00:36.251Z,100763.97
2022-08-05T18:03:09.673Z,100765.59
2022-08-05T18:05:36.597Z,100758.78
2022-08-05T18:08:04.205Z,100754.66
2022-08-05T18:10:33.703Z,100759.66
2022-08-05T18:13:02.035Z,100760.31
2022-08-05T18:15:35.205Z,100756.75
2022-08-05T18:18:11.236Z,100770.22
2022-08-05T18:20:38.264Z,100758.88
2022-08-05T18:23:09.146Z,100763.47
2022-08-05T18:25:39.511Z,100756.38
2022-08-05T18:28:16.462Z,100763.13
2022-08-05T18:30:45.109Z,100760.25
2022-08-05T18:33:13.488Z,100762.66
2022-08-05T18:36:00.640Z,100766.63
2022-08-05T18:38:28.629Z,100772.09
2022-08-05T18:41:58.227Z,100769.25
2022-08-05T18:43:49.031Z,100761.63
2022-08-05T18:46:19.864Z,100755.22
2022-08-05T18:48:52.758Z,100762.06
2022-08-05T18:52:03.137Z,100754.44
2022-08-05T18:54:28.377Z,100762.16
2022-08-05T18:56:58.066Z,100766.16
2022-08-05T18:59:42.751Z,100761.06
2022-08-05T19:02:27.129Z,100762.22
2022-08-05T19:06:06.337Z,100763.94
2022-08-05T19:07:52.569Z,100761.44
2022-08-05T19:10:27.976Z,100762.53
2022-08-05T19:12:56.858Z,100772.44
2022-08-05T19:15:54.643Z,100777.81
2022-08-05T19:18:13.629Z,100775.28
2022-08-05T19:20:51.619Z,100780.56
2022-08-05T19:23:22.643Z,100778.94
2022-08-05T19:26:05.412Z,100789.50
2022-08-05T19:28:37.459Z,100791.44
2022-08-05T19:31:09.235Z,100793.97
2022-08-05T19:33:40.713Z,100797.47
2022-08-05T19:36:17.021Z,100797.50
2022-08-05T19:38:45.569Z,100809.28
2022-08-05T19:41:12.436Z,100804.25
2022-08-05T19:44:06.792Z,100805.91
2022-08-05T19:46:29.970Z,100812.94
2022-08-05T19:49:01.186Z,100813.84
2022-08-05T19:52:04.246Z,100819.16
2022-08-05T19:54:25.563Z,100826.28
2022-08-05T19:56:57.966Z,100827.16
2022-08-05T20:00:00.698Z,100827.13
2022-08-05T20:02:12.975Z,100824.53
2022-08-05T20:04:43.173Z,100818.38
2022-08-05T20:07:13.717Z,100828.94
2022-08-05T20:09:53.542Z,100818.63
2022-08-05T20:12:23.541Z,100820.41
2022-08-05T20:14:52.592Z,100822.09
2022-08-05T20:17:23.647Z,100835.31
2022-08-05T20:19:57.043Z,100824.19
2022-08-05T20:22:26.766Z,100825.94
2022-08-05T20:24:56.800Z,100823.34
2022-08-05T20:27:27.486Z,100830.41
2022-08-05T20:30:10.497Z,100832.28
2022-08-05T20:32:37.162Z,100834.09
2022-08-05T20:35:12.193Z,100835.03
2022-08-05T20:38:05.892Z,100843.88
2022-08-05T20:40:27.058Z,100842.03
2022-08-05T20:42:55.708Z,100839.44
2022-08-05T20:45:56.625Z,100848.28
2022-08-05T20:48:16.556Z,100846.56
2022-08-05T20:50:45.391Z,100845.75
2022-08-05T20:53:16.031Z,100850.22
2022-08-05T20:56:07.801Z,100854.53
2022-08-05T20:58:30.109Z,100853.72
2022-08-05T21:00:57.120Z,100852.88
2022-08-05T21:03:24.498Z,100852.97
2022-08-05T21:05:54.702Z,100873.06
2022-08-05T21:08:26.797Z,100873.13
2022-08-05T21:11:11.644Z,100873.13
2022-08-05T21:13:48.371Z,100873.88
2022-08-05T21:16:29.806Z,100872.84
2022-08-05T21:19:00.414Z,100878.88
2022-08-05T21:21:39.750Z,100883.25
2022-08-05T21:24:13.329Z,100884.44
2022-08-05T21:26:44.057Z,100881.00
2022-08-05T21:29:16.701Z,100884.53
2022-08-05T21:31:43.769Z,100885.31
2022-08-05T21:34:11.112Z,100882.59
2022-08-05T21:36:38.268Z,100879.09
2022-08-05T21:39:05.104Z,100884.44
2022-08-05T21:41:35.410Z,100889.84
2022-08-05T21:44:04.780Z,100894.22
2022-08-05T21:46:34.420Z,100891.59
2022-08-05T21:49:07.385Z,100895.06
2022-08-05T21:52:16.637Z,100898.59
2022-08-05T21:54:30.788Z,100897.63
2022-08-05T21:57:29.277Z,100908.16
2022-08-05T22:00:03.967Z,100909.97
2022-08-05T22:02:39.692Z,100906.38
2022-08-05T22:05:09.162Z,100908.09
2022-08-05T22:07:39.773Z,100909.06
2022-08-05T22:10:26.561Z,100872.56
2022-08-05T22:12:55.151Z,100918.63
2022-08-05T22:16:00.482Z,100921.22
2022-08-05T22:18:11.296Z,100921.22
2022-08-05T22:20:39.045Z,100935.19
2022-08-05T22:24:02.791Z,100938.69
2022-08-05T22:26:37.305Z,100940.44
2022-08-05T22:29:04.519Z,100936.94
2022-08-05T22:31:44.342Z,100938.75
2022-08-05T22:34:20.150Z,100936.16
2022-08-05T22:36:55.431Z,100933.56
2022-08-05T22:39:22.993Z,100932.69
2022-08-05T22:42:11.676Z,100930.94
2022-08-05T22:44:36.546Z,100936.25
2022-08-05T22:47:05.747Z,100937.13
2022-08-05T22:50:21.427Z,100931.88
2022-08-05T22:52:30.665Z,100937.13
2022-08-05T22:55:01.497Z,100943.22
2022-08-05T22:57:34.129Z,100939.75
2022-08-05T23:00:04.089Z,100938.03
2022-08-05T23:02:30.935Z,100946.72
2022-08-05T23:05:04.771Z,100948.47
2022-08-05T23:07:45.056Z,100958.94
2022-08-05T23:10:12.536Z,100951.94
2022-08-05T23:12:39.787Z,100959.78
2022-08-05T23:15:10.104Z,100959.78
2022-08-05T23:18:01.401Z,100961.50
2022-08-05T23:20:25.614Z,100964.13
2022-08-05T23:22:55.590Z,100959.75
2022-08-05T23:25:51.687Z,100962.31
2022-08-05T23:28:09.938Z,100953.63
2022-08-05T23:30:40.239Z,100964.94
2022-08-05T23:33:15.932Z,100967.38
2022-08-05T23:35:49.136Z,100967.34
2022-08-05T23:38:16.317Z,100972.53
2022-08-05T23:40:49.698Z,100958.56
2022-08-05T23:43:25.046Z,100962.13
2022-08-05T23:46:20.830Z,100966.47
2022-08-05T23:48:59.608Z,100928.03
2022-08-05T23:51:53.437Z,100970.75
2022-08-05T23:54:30.274Z,100940.38
2022-08-05T23:57:03.387Z,100969.16
2022-08-05T23:59:37.669Z,100969.97
